sensor_id;sensor_type;location;lat;lon;timestamp;pressure;altitude;pressure_sealevel;temperature;humidity
7052;BME280;3567;52.444;13.556;2023-03-01T00:01:06;102775.97;;;-4.31;99.84
7052;BME280;3567;52.444;13.556;2023-03-01T00:03:32;102777.78;;;-4.33;99.46
7052;BME280;3567;52.444;13.556;2023-03-01T00:05:58;102773.63;;;-4.37;100.00
7052;BME280;3567;52.444;13.556;2023-03-01T00:08:24;102772.88;;;-4.39;99.88
7052;BME280;3567;52.444;13.556;2023-03-01T00:13:44;102760.28;;;-4.48;99.90
7052;BME280;3567;52.444;13.556;2023-03-01T00:16:15;102758.69;;;-4.51;99.84
7052;BME280;3567;52.444;13.556;2023-03-01T00:18:41;102758.00;;;-4.54;99.99
7052;BME280;3567;52.444;13.556;2023-03-01T00:21:06;102758.84;;;-4.54;99.62
7052;BME280;3567;52.444;13.556;2023-03-01T00:23:34;102756.16;;;-4.52;99.94
7052;BME280;3567;52.444;13.556;2023-03-01T00:25:59;102758.00;;;-4.54;100.00
7052;BME280;3567;52.444;13.556;2023-03-01T00:28:25;102749.41;;;-4.56;100.00
7052;BME280;3567;52.444;13.556;2023-03-01T00:30:50;102750.47;;;-4.60;99.42
7052;BME280;3567;52.444;13.556;2023-03-01T00:33:16;102751.41;;;-4.61;100.00
7052;BME280;3567;52.444;13.556;2023-03-01T00:35:41;102741.78;;;-4.61;100.00
7052;BME280;3567;52.444;13.556;2023-03-01T00:38:07;102745.34;;;-4.62;100.00
7052;BME280;3567;52.444;13.556;2023-03-01T00:40:34;102743.66;;;-4.63;100.00
7052;BME280;3567;52.444;13.556;2023-03-01T00:43:00;102747.16;;;-4.64;100.00
7052;BME280;3567;52.444;13.556;2023-03-01T00:45:27;102742.97;;;-4.66;100.00
7052;BME280;3567;52.444;13.556;2023-03-01T00:47:52;102746.50;;;-4.67;100.00
7052;BME280;3567;52.444;13.556;2023-03-01T00:50:18;102745.66;;;-4.68;100.00
7052;BME280;3567;52.444;13.556;2023-03-01T00:52:44;102739.59;;;-4.68;100.00
7052;BME280;3567;52.444;13.556;2023-03-01T00:55:11;102737.03;;;-4.70;100.00
7052;BME280;3567;52.444;13.556;2023-03-01T00:57:37;102743.09;;;-4.69;100.00
7052;BME280;3567;52.444;13.556;2023-03-01T01:00:06;102744.03;;;-4.70;100.00
7052;BME280;3567;52.444;13.556;2023-03-01T01:02:33;102737.22;;;-4.73;100.00
7052;BME280;3567;52.444;13.556;2023-03-01T01:04:59;102738.38;;;-4.79;100.00
7052;BME280;3567;52.444;13.556;2023-03-01T01:07:24;102731.00;;;-4.88;100.00
7052;BME280;3567;52.444;13.556;2023-03-01T01:09:49;102732.88;;;-4.90;100.00
7052;BME280;3567;52.444;13.556;2023-03-01T01:12:15;102732.09;;;-4.92;100.00
7052;BME280;3567;52.444;13.556;2023-03-01T01:14:40;102728.53;;;-4.91;100.00
7052;BME280;3567;52.444;13.556;2023-03-01T01:17:06;102728.72;;;-4.94;100.00
7052;BME280;3567;52.444;13.556;2023-03-01T01:19:31;102721.81;;;-4.95;100.00
7052;BME280;3567;52.444;13.556;2023-03-01T01:21:56;102720.19;;;-4.97;100.00
7052;BME280;3567;52.444;13.556;2023-03-01T01:24:22;102719.34;;;-4.98;100.00
7052;BME280;3567;52.444;13.556;2023-03-01T01:26:47;102720.09;;;-4.96;100.00
7052;BME280;3567;52.444;13.556;2023-03-01T01:29:12;102705.25;;;-4.95;100.00
7052;BME280;3567;52.444;13.556;2023-03-01T01:31:40;102712.19;;;-4.94;100.00
7052;BME280;3567;52.444;13.556;2023-03-01T01:34:07;102709.50;;;-4.93;100.00
7052;BME280;3567;52.444;13.556;2023-03-01T01:36:36;102707.94;;;-4.97;100.00
7052;BME280;3567;52.444;13.556;2023-03-01T01:39:02;102703.78;;;-5.01;100.00
7052;BME280;3567;52.444;13.556;2023-03-01T01:41:29;102703.97;;;-5.04;100.00
7052;BME280;3567;52.444;13.556;2023-03-01T01:44:12;102698.66;;;-5.03;100.00
7052;BME280;3567;52.444;13.556;2023-03-01T01:46:41;102698.66;;;-5.03;100.00
7052;BME280;3567;52.444;13.556;2023-03-01T01:49:22;102712.50;;;-5.01;100.00
7052;BME280;3567;52.444;13.556;2023-03-01T01:51:49;102709.81;;;-4.99;100.00
7052;BME280;3567;52.444;13.556;2023-03-01T01:54:23;102712.34;;;-4.97;100.00
7052;BME280;3567;52.444;13.556;2023-03-01T01:57:03;102713.19;;;-4.97;100.00
7052;BME280;3567;52.444;13.556;2023-03-01T01:59:30;102717.25;;;-4.91;100.00
7052;BME280;3567;52.444;13.556;2023-03-01T02:01:59;102714.63;;;-4.91;100.00
7052;BME280;3567;52.444;13.556;2023-03-01T02:04:27;102722.56;;;-4.93;100.00
7052;BME280;3567;52.444;13.556;2023-03-01T02:06:59;102706.13;;;-4.95;100.00
7052;BME280;3567;52.444;13.556;2023-03-01T02:09:26;102707.19;;;-4.99;100.00
7052;BME280;3567;52.444;13.556;2023-03-01T02:11:53;102709.19;;;-5.04;100.00
7052;BME280;3567;52.444;13.556;2023-03-01T02:14:18;102715.34;;;-5.05;100.00
7052;BME280;3567;52.444;13.556;2023-03-01T02:16:44;102705.88;;;-5.08;100.00
7052;BME280;3567;52.444;13.556;2023-03-01T02:19:25;102715.50;;;-5.08;100.00
7052;BME280;3567;52.444;13.556;2023-03-01T02:22:20;102704.34;;;-5.12;100.00
7052;BME280;3567;52.444;13.556;2023-03-01T02:27:16;102709.06;;;-5.18;100.00
7052;BME280;3567;52.444;13.556;2023-03-01T02:29:43;102697.94;;;-5.22;100.00
7052;BME280;3567;52.444;13.556;2023-03-01T02:32:09;102703.22;;;-5.23;100.00
7052;BME280;3567;52.444;13.556;2023-03-01T02:34:35;102707.69;;;-5.25;100.00
7052;BME280;3567;52.444;13.556;2023-03-01T02:37:07;102708.59;;;-5.27;100.00
7052;BME280;3567;52.444;13.556;2023-03-01T02:39:42;102709.50;;;-5.28;100.00
7052;BME280;3567;52.444;13.556;2023-03-01T02:42:13;102713.03;;;-5.29;100.00
7052;BME280;3567;52.444;13.556;2023-03-01T02:44:40;102721.72;;;-5.28;100.00
7052;BME280;3567;52.444;13.556;2023-03-01T02:47:05;102712.19;;;-5.29;100.00
7052;BME280;3567;52.444;13.556;2023-03-01T02:49:33;102710.59;;;-5.32;100.00
7052;BME280;3567;52.444;13.556;2023-03-01T02:57:11;102690.38;;;-5.45;100.00
7052;BME280;3567;52.444;13.556;2023-03-01T02:59:38;102698.13;;;-5.44;100.00
7052;BME280;3567;52.444;13.556;2023-03-01T03:02:22;102693.69;;;-5.42;100.00
7052;BME280;3567;52.444;13.556;2023-03-01T03:05:11;102700.53;;;-5.39;100.00
7052;BME280;3567;52.444;13.556;2023-03-01T03:07:40;102690.91;;;-5.39;100.00
7052;BME280;3567;52.444;13.556;2023-03-01T03:10:09;102686.72;;;-5.41;100.00
7052;BME280;3567;52.444;13.556;2023-03-01T03:12:36;102687.69;;;-5.44;100.00
7052;BME280;3567;52.444;13.556;2023-03-01T03:15:02;102683.56;;;-5.48;100.00
7052;BME280;3567;52.444;13.556;2023-03-01T03:17:36;102691.41;;;-5.48;100.00
7052;BME280;3567;52.444;13.556;2023-03-01T03:20:03;102683.63;;;-5.49;100.00
7052;BME280;3567;52.444;13.556;2023-03-01T03:22:30;102690.56;;;-5.48;100.00
7052;BME280;3567;52.444;13.556;2023-03-01T03:24:55;102693.22;;;-5.50;100.00
7052;BME280;3567;52.444;13.556;2023-03-01T03:27:21;102681.09;;;-5.51;100.00
7052;BME280;3567;52.444;13.556;2023-03-01T03:29:46;102679.41;;;-5.52;100.00
7052;BME280;3567;52.444;13.556;2023-03-01T03:32:11;102675.13;;;-5.53;100.00
7052;BME280;3567;52.444;13.556;2023-03-01T03:34:36;102672.72;;;-5.58;100.00
7052;BME280;3567;52.444;13.556;2023-03-01T03:37:02;102668.56;;;-5.62;100.00
7052;BME280;3567;52.444;13.556;2023-03-01T03:39:27;102672.13;;;-5.63;100.00
7052;BME280;3567;52.444;13.556;2023-03-01T03:41:54;102667.88;;;-5.65;100.00
7052;BME280;3567;52.444;13.556;2023-03-01T03:44:20;102665.44;;;-5.68;100.00
7052;BME280;3567;52.444;13.556;2023-03-01T03:46:46;102662.91;;;-5.70;100.00
7052;BME280;3567;52.444;13.556;2023-03-01T03:49:11;102654.28;;;-5.72;100.00
7052;BME280;3567;52.444;13.556;2023-03-01T03:51:37;102661.28;;;-5.72;100.00
7052;BME280;3567;52.444;13.556;2023-03-01T03:54:02;102652.53;;;-5.71;100.00
7052;BME280;3567;52.444;13.556;2023-03-01T03:56:28;102650.84;;;-5.72;100.00
7052;BME280;3567;52.444;13.556;2023-03-01T03:58:53;102648.97;;;-5.70;100.00
7052;BME280;3567;52.444;13.556;2023-03-01T04:01:19;102649.91;;;-5.71;100.00
7052;BME280;3567;52.444;13.556;2023-03-01T04:03:45;102646.53;;;-5.73;100.00
7052;BME280;3567;52.444;13.556;2023-03-01T04:06:13;102643.16;;;-5.75;100.00
7052;BME280;3567;52.444;13.556;2023-03-01T04:08:39;102649.28;;;-5.76;100.00
7052;BME280;3567;52.444;13.556;2023-03-01T04:11:06;102652.81;;;-5.77;100.00
7052;BME280;3567;52.444;13.556;2023-03-01T04:13:51;102652.06;;;-5.80;100.00
7052;BME280;3567;52.444;13.556;2023-03-01T04:16:17;102653.97;;;-5.83;100.00
7052;BME280;3567;52.444;13.556;2023-03-01T04:18:44;102654.97;;;-5.86;100.00
7052;BME280;3567;52.444;13.556;2023-03-01T04:21:09;102646.38;;;-5.88;100.00
7052;BME280;3567;52.444;13.556;2023-03-01T04:23:36;102650.06;;;-5.92;100.00
7052;BME280;3567;52.444;13.556;2023-03-01T04:26:02;102642.41;;;-5.95;100.00
7052;BME280;3567;52.444;13.556;2023-03-01T04:28:41;102643.47;;;-5.99;100.00
7052;BME280;3567;52.444;13.556;2023-03-01T04:31:13;102638.38;;;-6.02;100.00
7052;BME280;3567;52.444;13.556;2023-03-01T04:33:47;102637.63;;;-6.04;100.00
7052;BME280;3567;52.444;13.556;2023-03-01T04:36:14;102637.53;;;-6.02;100.00
7052;BME280;3567;52.444;13.556;2023-03-01T04:38:41;102641.00;;;-6.02;100.00
7052;BME280;3567;52.444;13.556;2023-03-01T04:41:10;102634.09;;;-6.03;100.00
7052;BME280;3567;52.444;13.556;2023-03-01T04:43:37;102639.41;;;-6.04;100.00
7052;BME280;3567;52.444;13.556;2023-03-01T04:46:08;102635.19;;;-6.07;100.00
7052;BME280;3567;52.444;13.556;2023-03-01T04:48:38;102639.63;;;-6.09;100.00
7052;BME280;3567;52.444;13.556;2023-03-01T04:51:05;102637.94;;;-6.10;100.00
7052;BME280;3567;52.444;13.556;2023-03-01T04:53:31;102643.06;;;-6.09;100.00
7052;BME280;3567;52.444;13.556;2023-03-01T04:55:58;102638.84;;;-6.11;100.00
7052;BME280;3567;52.444;13.556;2023-03-01T04:58:25;102638.91;;;-6.13;100.00
7052;BME280;3567;52.444;13.556;2023-03-01T05:00:50;102648.44;;;-6.12;100.00
7052;BME280;3567;52.444;13.556;2023-03-01T05:03:16;102646.72;;;-6.13;100.00
7052;BME280;3567;52.444;13.556;2023-03-01T05:05:46;102639.81;;;-6.14;100.00
7052;BME280;3567;52.444;13.556;2023-03-01T05:08:12;102642.53;;;-6.15;100.00
7052;BME280;3567;52.444;13.556;2023-03-01T05:10:44;102641.81;;;-6.19;100.00
7052;BME280;3567;52.444;13.556;2023-03-01T05:13:11;102639.19;;;-6.19;100.00
7052;BME280;3567;52.444;13.556;2023-03-01T05:15:39;102639.16;;;-6.17;100.00
7052;BME280;3567;52.444;13.556;2023-03-01T05:18:05;102635.75;;;-6.19;100.00
7052;BME280;3567;52.444;13.556;2023-03-01T05:20:37;102632.31;;;-6.20;100.00
7052;BME280;3567;52.444;13.556;2023-03-01T05:23:03;102634.91;;;-6.20;100.00
7052;BME280;3567;52.444;13.556;2023-03-01T05:25:34;102635.75;;;-6.19;100.00
7052;BME280;3567;52.444;13.556;2023-03-01T05:28:01;102638.44;;;-6.21;100.00
7052;BME280;3567;52.444;13.556;2023-03-01T05:30:30;102635.00;;;-6.21;100.00
7052;BME280;3567;52.444;13.556;2023-03-01T05:32:56;102630.75;;;-6.24;100.00
7052;BME280;3567;52.444;13.556;2023-03-01T05:35:22;102634.38;;;-6.26;100.00
7052;BME280;3567;52.444;13.556;2023-03-01T05:37:49;102628.31;;;-6.27;100.00
7052;BME280;3567;52.444;13.556;2023-03-01T05:40:17;102624.84;;;-6.27;100.00
7052;BME280;3567;52.444;13.556;2023-03-01T05:42:45;102624.06;;;-6.29;100.00
7052;BME280;3567;52.444;13.556;2023-03-01T05:45:12;102618.84;;;-6.29;100.00
7052;BME280;3567;52.444;13.556;2023-03-01T05:47:39;102624.00;;;-6.28;100.00
7052;BME280;3567;52.444;13.556;2023-03-01T05:50:12;102621.47;;;-6.29;100.00
7052;BME280;3567;52.444;13.556;2023-03-01T05:52:38;102632.69;;;-6.27;100.00
7052;BME280;3567;52.444;13.556;2023-03-01T05:55:04;102631.75;;;-6.26;100.00
7052;BME280;3567;52.444;13.556;2023-03-01T05:57:29;102632.53;;;-6.24;100.00
7052;BME280;3567;52.444;13.556;2023-03-01T05:59:55;102639.41;;;-6.23;100.00
7052;BME280;3567;52.444;13.556;2023-03-01T06:02:20;102639.38;;;-6.22;100.00
7052;BME280;3567;52.444;13.556;2023-03-01T06:04:46;102632.47;;;-6.23;100.00
7052;BME280;3567;52.444;13.556;2023-03-01T06:07:11;102633.44;;;-6.25;100.00
7052;BME280;3567;52.444;13.556;2023-03-01T06:09:36;102630.84;;;-6.25;100.00
7052;BME280;3567;52.444;13.556;2023-03-01T06:12:02;102634.19;;;-6.23;100.00
7052;BME280;3567;52.444;13.556;2023-03-01T06:14:27;102627.16;;;-6.21;100.00
7052;BME280;3567;52.444;13.556;2023-03-01T06:16:53;102626.09;;;-6.17;100.00
7052;BME280;3567;52.444;13.556;2023-03-01T06:19:18;102626.03;;;-6.16;100.00
7052;BME280;3567;52.444;13.556;2023-03-01T06:21:43;102629.34;;;-6.12;100.00
7052;BME280;3567;52.444;13.556;2023-03-01T06:24:09;102630.94;;;-6.10;100.00
7052;BME280;3567;52.444;13.556;2023-03-01T06:26:34;102630.72;;;-6.05;100.00
7052;BME280;3567;52.444;13.556;2023-03-01T06:28:59;102625.28;;;-6.00;100.00
7052;BME280;3567;52.444;13.556;2023-03-01T06:31:25;102628.56;;;-5.97;100.00
7052;BME280;3567;52.444;13.556;2023-03-01T06:33:50;102635.09;;;-5.88;100.00
7052;BME280;3567;52.444;13.556;2023-03-01T06:36:15;102636.41;;;-5.80;100.00
7052;BME280;3567;52.444;13.556;2023-03-01T06:38:44;102635.25;;;-5.74;100.00
7052;BME280;3567;52.444;13.556;2023-03-01T06:41:09;102637.38;;;-5.65;100.00
7052;BME280;3567;52.444;13.556;2023-03-01T06:43:34;102640.38;;;-5.55;100.00
7052;BME280;3567;52.444;13.556;2023-03-01T06:46:00;102645.06;;;-5.44;100.00
7052;BME280;3567;52.444;13.556;2023-03-01T06:48:28;102641.75;;;-5.31;100.00
7052;BME280;3567;52.444;13.556;2023-03-01T06:50:53;102636.75;;;-5.18;100.00
7052;BME280;3567;52.444;13.556;2023-03-01T06:53:19;102641.50;;;-5.09;100.00
7052;BME280;3567;52.444;13.556;2023-03-01T06:55:44;102643.69;;;-5.01;100.00
7052;BME280;3567;52.444;13.556;2023-03-01T06:58:09;102638.00;;;-4.92;100.00
7052;BME280;3567;52.444;13.556;2023-03-01T07:00:36;102638.34;;;-4.82;100.00
7052;BME280;3567;52.444;13.556;2023-03-01T07:03:01;102630.84;;;-4.72;100.00
7052;BME280;3567;52.444;13.556;2023-03-01T07:05:28;102645.13;;;-4.62;100.00
7052;BME280;3567;52.444;13.556;2023-03-01T07:07:54;102634.81;;;-4.50;100.00
7052;BME280;3567;52.444;13.556;2023-03-01T07:10:20;102641.84;;;-4.34;100.00
7052;BME280;3567;52.444;13.556;2023-03-01T07:12:45;102649.69;;;-4.18;100.00
7052;BME280;3567;52.444;13.556;2023-03-01T07:15:11;102647.97;;;-4.04;100.00
7052;BME280;3567;52.444;13.556;2023-03-01T07:17:36;102647.94;;;-3.88;100.00
7052;BME280;3567;52.444;13.556;2023-03-01T07:20:02;102647.06;;;-3.73;100.00
7052;BME280;3567;52.444;13.556;2023-03-01T07:22:28;102651.59;;;-3.60;100.00
7052;BME280;3567;52.444;13.556;2023-03-01T07:24:53;102651.06;;;-3.51;100.00
7052;BME280;3567;52.444;13.556;2023-03-01T07:27:18;102656.31;;;-3.37;100.00
7052;BME280;3567;52.444;13.556;2023-03-01T07:29:44;102657.09;;;-3.21;100.00
7052;BME280;3567;52.444;13.556;2023-03-01T07:32:09;102652.59;;;-3.04;100.00
7052;BME280;3567;52.444;13.556;2023-03-01T07:34:35;102651.59;;;-2.87;100.00
7052;BME280;3567;52.444;13.556;2023-03-01T07:37:01;102657.88;;;-2.76;100.00
7052;BME280;3567;52.444;13.556;2023-03-01T07:39:26;102655.22;;;-2.61;100.00
7052;BME280;3567;52.444;13.556;2023-03-01T07:41:51;102651.91;;;-2.51;100.00
7052;BME280;3567;52.444;13.556;2023-03-01T07:44:17;102651.06;;;-2.37;100.00
7052;BME280;3567;52.444;13.556;2023-03-01T07:46:43;102651.03;;;-2.23;100.00
7052;BME280;3567;52.444;13.556;2023-03-01T07:49:09;102646.38;;;-2.05;100.00
7052;BME280;3567;52.444;13.556;2023-03-01T07:51:34;102649.50;;;-1.86;100.00
7052;BME280;3567;52.444;13.556;2023-03-01T07:54:00;102651.00;;;-1.69;100.00
7052;BME280;3567;52.444;13.556;2023-03-01T07:56:25;102653.56;;;-1.54;100.00
7052;BME280;3567;52.444;13.556;2023-03-01T07:58:50;102649.25;;;-1.43;100.00
7052;BME280;3567;52.444;13.556;2023-03-01T08:01:18;102653.50;;;-1.27;100.00
7052;BME280;3567;52.444;13.556;2023-03-01T08:03:44;102651.81;;;-1.16;100.00
7052;BME280;3567;52.444;13.556;2023-03-01T08:06:12;102644.66;;;-1.01;100.00
7052;BME280;3567;52.444;13.556;2023-03-01T08:08:38;102642.63;;;-0.85;100.00
7052;BME280;3567;52.444;13.556;2023-03-01T08:11:05;102644.81;;;-0.66;100.00
7052;BME280;3567;52.444;13.556;2023-03-01T08:13:32;102647.06;;;-0.48;100.00
7052;BME280;3567;52.444;13.556;2023-03-01T08:16:10;102640.50;;;-0.30;100.00
7052;BME280;3567;52.444;13.556;2023-03-01T08:18:36;102640.94;;;-0.12;100.00
7052;BME280;3567;52.444;13.556;2023-03-01T08:21:07;102634.34;;;0.06;100.00
7052;BME280;3567;52.444;13.556;2023-03-01T08:23:32;102637.41;;;0.24;99.49
7052;BME280;3567;52.444;13.556;2023-03-01T08:26:12;102639.25;;;0.46;98.28
7052;BME280;3567;52.444;13.556;2023-03-01T08:28:39;102634.28;;;0.65;97.18
7052;BME280;3567;52.444;13.556;2023-03-01T08:33:39;102632.78;;;1.08;95.87
7052;BME280;3567;52.444;13.556;2023-03-01T08:36:05;102628.19;;;1.32;94.44
7052;BME280;3567;52.444;13.556;2023-03-01T08:38:33;102625.97;;;1.60;94.07
7052;BME280;3567;52.444;13.556;2023-03-01T08:41:02;102625.66;;;1.85;92.93
7052;BME280;3567;52.444;13.556;2023-03-01T08:43:28;102632.06;;;2.15;91.22
7052;BME280;3567;52.444;13.556;2023-03-01T08:45:54;102631.94;;;2.37;89.34
7052;BME280;3567;52.444;13.556;2023-03-01T08:48:19;102623.63;;;2.62;88.55
7052;BME280;3567;52.444;13.556;2023-03-01T08:50:44;102624.31;;;2.85;87.08
7052;BME280;3567;52.444;13.556;2023-03-01T08:53:10;102624.53;;;3.03;84.31
7052;BME280;3567;52.444;13.556;2023-03-01T08:55:35;102627.25;;;3.23;84.11
7052;BME280;3567;52.444;13.556;2023-03-01T08:58:00;102622.16;;;3.40;82.14
7052;BME280;3567;52.444;13.556;2023-03-01T09:00:26;102617.06;;;3.58;81.74
7052;BME280;3567;52.444;13.556;2023-03-01T09:02:51;102617.22;;;3.86;79.95
7052;BME280;3567;52.444;13.556;2023-03-01T09:05:17;102609.97;;;4.27;79.61
7052;BME280;3567;52.444;13.556;2023-03-01T09:07:42;102617.72;;;4.67;77.26
7052;BME280;3567;52.444;13.556;2023-03-01T09:10:08;102611.16;;;5.08;76.95
7052;BME280;3567;52.444;13.556;2023-03-01T09:12:34;102597.88;;;5.36;74.16
7052;BME280;3567;52.444;13.556;2023-03-01T09:14:59;102600.66;;;5.62;72.22
7052;BME280;3567;52.444;13.556;2023-03-01T09:17:24;102594.06;;;5.84;71.40
7052;BME280;3567;52.444;13.556;2023-03-01T09:19:50;102595.56;;;6.22;70.92
7052;BME280;3567;52.444;13.556;2023-03-01T09:22:15;102594.84;;;6.55;69.38
7052;BME280;3567;52.444;13.556;2023-03-01T09:24:40;102590.03;;;6.59;67.82
7052;BME280;3567;52.444;13.556;2023-03-01T09:27:06;102585.84;;;6.56;66.76
7052;BME280;3567;52.444;13.556;2023-03-01T09:29:37;102594.03;;;6.63;66.46
7052;BME280;3567;52.444;13.556;2023-03-01T09:32:02;102591.13;;;6.74;65.66
7052;BME280;3567;52.444;13.556;2023-03-01T09:34:28;102591.28;;;7.07;64.88
7052;BME280;3567;52.444;13.556;2023-03-01T09:36:53;102578.13;;;7.64;63.77
7052;BME280;3567;52.444;13.556;2023-03-01T09:39:19;102573.81;;;8.20;62.38
7052;BME280;3567;52.444;13.556;2023-03-01T09:42:00;102550.66;;;8.04;55.96
7052;BME280;3567;52.444;13.556;2023-03-01T09:46:59;102557.97;;;8.19;56.01
7052;BME280;3567;52.444;13.556;2023-03-01T09:49:28;102546.97;;;7.97;52.84
7052;BME280;3567;52.444;13.556;2023-03-01T09:54:39;102546.28;;;7.71;53.79
7052;BME280;3567;52.444;13.556;2023-03-01T10:02:45;102540.63;;;7.98;50.34
7052;BME280;3567;52.444;13.556;2023-03-01T10:10:36;102533.41;;;9.34;49.92
7052;BME280;3567;52.444;13.556;2023-03-01T10:13:18;102520.84;;;9.12;47.05
7052;BME280;3567;52.444;13.556;2023-03-01T10:15:50;102521.31;;;8.84;47.63
7052;BME280;3567;52.444;13.556;2023-03-01T10:18:23;102533.41;;;9.03;48.42
7052;BME280;3567;52.444;13.556;2023-03-01T10:21:07;102532.28;;;9.52;47.68
7052;BME280;3567;52.444;13.556;2023-03-01T10:23:35;102519.22;;;9.57;47.15
7052;BME280;3567;52.444;13.556;2023-03-01T10:31:27;102519.72;;;9.98;47.59
7052;BME280;3567;52.444;13.556;2023-03-01T10:34:07;102513.09;;;10.46;46.48
7052;BME280;3567;52.444;13.556;2023-03-01T10:36:33;102497.84;;;10.62;44.99
7052;BME280;3567;52.444;13.556;2023-03-01T10:39:03;102496.13;;;10.90;44.93
7052;BME280;3567;52.444;13.556;2023-03-01T10:41:44;102478.91;;;10.34;42.84
7052;BME280;3567;52.444;13.556;2023-03-01T10:44:36;102480.84;;;10.40;41.42
7052;BME280;3567;52.444;13.556;2023-03-01T10:47:01;102480.34;;;10.81;42.98
7052;BME280;3567;52.444;13.556;2023-03-01T10:49:26;102484.13;;;10.86;41.62
7052;BME280;3567;52.444;13.556;2023-03-01T10:51:53;102473.25;;;10.73;41.60
7052;BME280;3567;52.444;13.556;2023-03-01T10:54:26;102467.44;;;11.06;40.71
7052;BME280;3567;52.444;13.556;2023-03-01T10:56:55;102453.00;;;10.70;39.26
7052;BME280;3567;52.444;13.556;2023-03-01T11:04:32;102455.25;;;10.37;41.16
7052;BME280;3567;52.444;13.556;2023-03-01T11:06:59;102444.81;;;10.57;41.05
7052;BME280;3567;52.444;13.556;2023-03-01T11:09:26;102436.91;;;11.07;40.42
7052;BME280;3567;52.444;13.556;2023-03-01T11:12:00;102434.13;;;11.15;39.38
7052;BME280;3567;52.444;13.556;2023-03-01T11:14:27;102430.44;;;11.16;39.49
7052;BME280;3567;52.444;13.556;2023-03-01T11:17:02;102426.84;;;11.51;40.11
7052;BME280;3567;52.444;13.556;2023-03-01T11:19:27;102419.34;;;11.96;38.16
7052;BME280;3567;52.444;13.556;2023-03-01T11:22:01;102409.66;;;11.95;37.86
7052;BME280;3567;52.444;13.556;2023-03-01T11:24:47;102412.69;;;11.64;37.28
7052;BME280;3567;52.444;13.556;2023-03-01T11:30:05;102405.50;;;11.00;37.95
7052;BME280;3567;52.444;13.556;2023-03-01T11:35:35;102403.03;;;10.99;38.67
7052;BME280;3567;52.444;13.556;2023-03-01T11:38:05;102403.41;;;11.17;38.69
7052;BME280;3567;52.444;13.556;2023-03-01T11:40:39;102397.19;;;11.38;37.04
7052;BME280;3567;52.444;13.556;2023-03-01T11:43:16;102390.75;;;11.11;37.10
7052;BME280;3567;52.444;13.556;2023-03-01T11:48:44;102386.13;;;11.20;35.56
7052;BME280;3567;52.444;13.556;2023-03-01T11:56:50;102402.53;;;10.74;38.19
7052;BME280;3567;52.444;13.556;2023-03-01T12:10:34;102387.31;;;11.88;37.50
7052;BME280;3567;52.444;13.556;2023-03-01T12:16:23;102357.25;;;12.13;33.05
7052;BME280;3567;52.444;13.556;2023-03-01T12:22:41;102355.25;;;11.59;33.62
7052;BME280;3567;52.444;13.556;2023-03-01T12:33:06;102324.00;;;12.14;33.19
7052;BME280;3567;52.444;13.556;2023-03-01T12:38:41;102321.88;;;11.68;32.32
7052;BME280;3567;52.444;13.556;2023-03-01T12:49:14;102302.00;;;11.90;31.85
7052;BME280;3567;52.444;13.556;2023-03-01T12:51:53;102303.75;;;11.76;32.79
7052;BME280;3567;52.444;13.556;2023-03-01T12:54:27;102300.16;;;11.97;32.53
7052;BME280;3567;52.444;13.556;2023-03-01T12:56:54;102300.22;;;12.04;32.94
7052;BME280;3567;52.444;13.556;2023-03-01T13:02:26;102296.44;;;11.08;33.63
7052;BME280;3567;52.444;13.556;2023-03-01T13:08:06;102302.53;;;10.73;33.96
7052;BME280;3567;52.444;13.556;2023-03-01T13:13:14;102293.00;;;9.98;34.21
7052;BME280;3567;52.444;13.556;2023-03-01T13:15:40;102304.28;;;9.79;35.15
7052;BME280;3567;52.444;13.556;2023-03-01T13:28:45;102298.63;;;9.74;35.57
7052;BME280;3567;52.444;13.556;2023-03-01T13:34:02;102292.19;;;9.83;34.72
7052;BME280;3567;52.444;13.556;2023-03-01T13:39:28;102280.78;;;10.40;33.45
7052;BME280;3567;52.444;13.556;2023-03-01T13:41:55;102277.00;;;10.20;33.91
7052;BME280;3567;52.444;13.556;2023-03-01T13:44:36;102281.09;;;10.01;34.14
7052;BME280;3567;52.444;13.556;2023-03-01T13:50:15;102272.06;;;10.02;34.59
7052;BME280;3567;52.444;13.556;2023-03-01T13:52:37;102261.94;;;10.19;34.39
7052;BME280;3567;52.444;13.556;2023-03-01T13:57:54;102266.69;;;10.02;33.34
7052;BME280;3567;52.444;13.556;2023-03-01T14:00:38;102252.03;;;9.68;33.28
7052;BME280;3567;52.444;13.556;2023-03-01T14:03:13;102258.81;;;9.64;34.74
7052;BME280;3567;52.444;13.556;2023-03-01T14:05:40;102256.28;;;9.63;34.01
7052;BME280;3567;52.444;13.556;2023-03-01T14:08:19;102243.09;;;9.76;33.34
7052;BME280;3567;52.444;13.556;2023-03-01T14:16:08;102234.25;;;9.61;34.55
7052;BME280;3567;52.444;13.556;2023-03-01T14:18:48;102239.88;;;9.66;35.50
7052;BME280;3567;52.444;13.556;2023-03-01T14:21:17;102235.72;;;9.63;35.29
7052;BME280;3567;52.444;13.556;2023-03-01T14:23:43;102236.19;;;9.52;34.71
7052;BME280;3567;52.444;13.556;2023-03-01T14:26:09;102236.94;;;9.61;34.77
7052;BME280;3567;52.444;13.556;2023-03-01T14:28:37;102227.34;;;9.52;34.72
7052;BME280;3567;52.444;13.556;2023-03-01T14:31:31;102231.13;;;9.28;34.68
7052;BME280;3567;52.444;13.556;2023-03-01T14:33:57;102231.75;;;9.15;34.50
7052;BME280;3567;52.444;13.556;2023-03-01T14:36:31;102225.25;;;8.95;35.27
7052;BME280;3567;52.444;13.556;2023-03-01T14:38:57;102224.03;;;8.82;34.86
7052;BME280;3567;52.444;13.556;2023-03-01T14:41:33;102222.13;;;8.68;35.78
7052;BME280;3567;52.444;13.556;2023-03-01T14:44:04;102220.78;;;8.49;36.30
7052;BME280;3567;52.444;13.556;2023-03-01T14:46:36;102225.72;;;8.37;36.86
7052;BME280;3567;52.444;13.556;2023-03-01T14:49:11;102226.94;;;8.27;37.44
7052;BME280;3567;52.444;13.556;2023-03-01T14:51:46;102231.47;;;8.18;37.81
7052;BME280;3567;52.444;13.556;2023-03-01T14:54:48;102232.13;;;8.20;37.99
7052;BME280;3567;52.444;13.556;2023-03-01T14:57:20;102234.03;;;8.11;38.49
7052;BME280;3567;52.444;13.556;2023-03-01T14:59:50;102236.72;;;8.03;39.51
7052;BME280;3567;52.444;13.556;2023-03-01T15:02:20;102229.72;;;8.02;39.09
7052;BME280;3567;52.444;13.556;2023-03-01T15:04:51;102226.88;;;8.04;39.40
7052;BME280;3567;52.444;13.556;2023-03-01T15:07:18;102223.56;;;8.02;38.56
7052;BME280;3567;52.444;13.556;2023-03-01T15:09:45;102227.75;;;8.04;40.18
7052;BME280;3567;52.444;13.556;2023-03-01T15:14:57;102237.22;;;8.07;41.01